sensor_id;sensor_type;location;lat;lon;timestamp;pressure;altitude;pressure_sealevel;temperature;humidity
3697;BME280;60662;48.810;8.872;2024-03-02T06:57:55;95427.34;;;3.88;97.64
3697;BME280;60662;48.810;8.872;2024-03-02T06:58:57;95437.66;;;4.12;96.54
3697;BME280;60662;48.810;8.872;2024-03-02T07:03:35;95440.03;;;4.61;93.28
3697;BME280;60662;48.810;8.872;2024-03-02T07:12:11;95452.19;;;3.68;97.25
3697;BME280;60662;48.810;8.872;2024-03-02T07:19:06;95445.63;;;3.59;97.84
3697;BME280;60662;48.810;8.872;2024-03-02T07:24:59;95422.16;;;3.42;97.96
3697;BME280;60662;48.810;8.872;2024-03-02T07:29:59;95454.59;;;3.73;97.38
3697;BME280;60662;48.810;8.872;2024-03-02T07:37:17;95435.03;;;3.89;96.26
3697;BME280;60662;48.810;8.872;2024-03-02T07:40:47;95448.22;;;4.05;95.04
3697;BME280;60662;48.810;8.872;2024-03-02T07:44:34;95441.94;;;4.13;94.92
3697;BME280;60662;48.810;8.872;2024-03-02T07:45:35;95447.63;;;4.21;94.09
3697;BME280;60662;48.810;8.872;2024-03-02T07:49:03;95442.97;;;4.31;93.13
3697;BME280;60662;48.810;8.872;2024-03-02T07:50:05;95454.25;;;4.50;92.71
3697;BME280;60662;48.810;8.872;2024-03-02T07:51:10;95453.19;;;4.56;92.04
3697;BME280;60662;48.810;8.872;2024-03-02T07:52:11;95460.50;;;4.87;91.22
3697;BME280;60662;48.810;8.872;2024-03-02T07:53:13;95461.19;;;5.13;89.88
3697;BME280;60662;48.810;8.872;2024-03-02T07:54:16;95456.66;;;5.39;88.74
3697;BME280;60662;48.810;8.872;2024-03-02T07:55:17;95459.47;;;5.74;87.41
3697;BME280;60662;48.810;8.872;2024-03-02T07:56:18;95463.38;;;6.03;85.98
3697;BME280;60662;48.810;8.872;2024-03-02T07:57:23;95448.72;;;6.21;84.39
3697;BME280;60662;48.810;8.872;2024-03-02T07:58:25;95462.81;;;6.52;84.09
3697;BME280;60662;48.810;8.872;2024-03-02T07:59:26;95448.56;;;6.61;82.45
3697;BME280;60662;48.810;8.872;2024-03-02T08:00:28;95448.56;;;6.61;82.45
3697;BME280;60662;48.810;8.872;2024-03-02T08:01:30;95469.00;;;7.04;80.41
3697;BME280;60662;48.810;8.872;2024-03-02T08:02:32;95457.72;;;7.23;79.76
3697;BME280;60662;48.810;8.872;2024-03-02T08:03:34;95460.84;;;7.63;79.11
3697;BME280;60662;48.810;8.872;2024-03-02T08:04:36;95462.31;;;7.84;76.87
3697;BME280;60662;48.810;8.872;2024-03-02T08:05:38;95466.28;;;8.57;76.02
3697;BME280;60662;48.810;8.872;2024-03-02T08:06:40;95462.84;;;9.03;74.06
3697;BME280;60662;48.810;8.872;2024-03-02T08:07:43;95458.16;;;9.69;73.49
3697;BME280;60662;48.810;8.872;2024-03-02T08:08:45;95447.25;;;9.62;71.53
3697;BME280;60662;48.810;8.872;2024-03-02T08:09:46;95448.00;;;9.64;71.68
3697;BME280;60662;48.810;8.872;2024-03-02T08:10:48;95447.88;;;10.24;70.27
3697;BME280;60662;48.810;8.872;2024-03-02T08:11:50;95460.34;;;10.48;70.37
3697;BME280;60662;48.810;8.872;2024-03-02T08:12:52;95461.75;;;10.81;68.24
3697;BME280;60662;48.810;8.872;2024-03-02T08:13:53;95457.06;;;11.26;66.59
3697;BME280;60662;48.810;8.872;2024-03-02T08:14:58;95459.38;;;11.31;66.15
3697;BME280;60662;48.810;8.872;2024-03-02T08:15:59;95457.22;;;11.76;64.85
3697;BME280;60662;48.810;8.872;2024-03-02T08:17:01;95453.47;;;10.74;66.41
3697;BME280;60662;48.810;8.872;2024-03-02T08:18:03;95458.91;;;11.77;64.50
3697;BME280;60662;48.810;8.872;2024-03-02T08:19:05;95464.72;;;11.02;64.96
3697;BME280;60662;48.810;8.872;2024-03-02T08:20:07;95460.22;;;10.91;66.10
3697;BME280;60662;48.810;8.872;2024-03-02T08:21:09;95467.28;;;11.16;65.43
3697;BME280;60662;48.810;8.872;2024-03-02T08:22:10;95453.38;;;11.16;65.41
3697;BME280;60662;48.810;8.872;2024-03-02T08:23:12;95456.59;;;11.47;65.01
3697;BME280;60662;48.810;8.872;2024-03-02T08:24:13;95442.16;;;11.01;65.12
3697;BME280;60662;48.810;8.872;2024-03-02T08:25:15;95437.81;;;10.47;65.26
3697;BME280;60662;48.810;8.872;2024-03-02T08:26:17;95442.94;;;11.16;66.18
3697;BME280;60662;48.810;8.872;2024-03-02T08:27:19;95450.63;;;11.57;64.01
3697;BME280;60662;48.810;8.872;2024-03-02T08:28:21;95445.47;;;11.95;63.18
3697;BME280;60662;48.810;8.872;2024-03-02T08:29:22;95443.41;;;11.74;63.39
3697;BME280;60662;48.810;8.872;2024-03-02T08:30:27;95453.78;;;12.01;62.89
3697;BME280;60662;48.810;8.872;2024-03-02T08:31:29;95446.13;;;12.24;61.94
3697;BME280;60662;48.810;8.872;2024-03-02T08:32:31;95446.16;;;12.35;62.64
3697;BME280;60662;48.810;8.872;2024-03-02T08:33:32;95436.56;;;12.36;61.01
3697;BME280;60662;48.810;8.872;2024-03-02T08:34:37;95452.09;;;12.50;61.16
3697;BME280;60662;48.810;8.872;2024-03-02T08:35:38;95431.66;;;12.18;61.26
3697;BME280;60662;48.810;8.872;2024-03-02T08:36:40;95435.38;;;12.40;61.33
3697;BME280;60662;48.810;8.872;2024-03-02T08:37:42;95448.25;;;12.43;60.67
3697;BME280;60662;48.810;8.872;2024-03-02T08:38:45;95448.88;;;13.19;59.93
3697;BME280;60662;48.810;8.872;2024-03-02T08:39:46;95439.75;;;14.06;57.59
3697;BME280;60662;48.810;8.872;2024-03-02T08:40:49;95440.41;;;13.51;58.52
3697;BME280;60662;48.810;8.872;2024-03-02T08:41:50;95441.94;;;12.58;60.25
3697;BME280;60662;48.810;8.872;2024-03-02T08:42:52;95448.50;;;12.64;60.23
3697;BME280;60662;48.810;8.872;2024-03-02T08:43:54;95442.88;;;12.57;60.39
3697;BME280;60662;48.810;8.872;2024-03-02T08:44:55;95444.94;;;12.28;61.32
3697;BME280;60662;48.810;8.872;2024-03-02T08:45:57;95436.03;;;12.31;61.53
3697;BME280;60662;48.810;8.872;2024-03-02T08:46:59;95444.66;;;12.81;60.38
3697;BME280;60662;48.810;8.872;2024-03-02T08:48:01;95439.56;;;13.51;58.60
3697;BME280;60662;48.810;8.872;2024-03-02T08:49:03;95454.09;;;13.44;58.74
3697;BME280;60662;48.810;8.872;2024-03-02T08:50:05;95435.44;;;13.35;58.69
3697;BME280;60662;48.810;8.872;2024-03-02T08:51:07;95448.53;;;13.24;58.93
3697;BME280;60662;48.810;8.872;2024-03-02T08:52:10;95441.97;;;13.54;58.67
3697;BME280;60662;48.810;8.872;2024-03-02T08:53:11;95440.31;;;14.66;56.51
3697;BME280;60662;48.810;8.872;2024-03-02T08:54:13;95443.81;;;14.21;56.04
3697;BME280;60662;48.810;8.872;2024-03-02T08:55:14;95439.47;;;14.43;56.47
3697;BME280;60662;48.810;8.872;2024-03-02T08:56:16;95443.94;;;14.20;56.92
3697;BME280;60662;48.810;8.872;2024-03-02T08:57:17;95448.19;;;14.55;56.36
3697;BME280;60662;48.810;8.872;2024-03-02T08:58:19;95447.28;;;13.99;56.19
3697;BME280;60662;48.810;8.872;2024-03-02T08:59:21;95439.25;;;14.46;56.07
3697;BME280;60662;48.810;8.872;2024-03-02T09:00:23;95438.66;;;14.98;55.44
3697;BME280;60662;48.810;8.872;2024-03-02T09:01:25;95445.06;;;15.16;55.36
3697;BME280;60662;48.810;8.872;2024-03-02T09:02:26;95442.53;;;14.82;55.16
3697;BME280;60662;48.810;8.872;2024-03-02T09:03:28;95432.00;;;14.16;55.66
3697;BME280;60662;48.810;8.872;2024-03-02T09:04:30;95429.47;;;14.37;55.87
3697;BME280;60662;48.810;8.872;2024-03-02T09:05:35;95443.19;;;14.41;56.23
3697;BME280;60662;48.810;8.872;2024-03-02T09:06:37;95437.31;;;14.48;55.34
3697;BME280;60662;48.810;8.872;2024-03-02T09:07:39;95440.56;;;13.95;55.99
3697;BME280;60662;48.810;8.872;2024-03-02T09:08:40;95445.47;;;14.45;56.17
3697;BME280;60662;48.810;8.872;2024-03-02T09:09:42;95435.91;;;14.67;55.90
3697;BME280;60662;48.810;8.872;2024-03-02T09:10:44;95439.69;;;14.85;55.49
3697;BME280;60662;48.810;8.872;2024-03-02T09:11:46;95434.00;;;14.46;54.68
3697;BME280;60662;48.810;8.872;2024-03-02T09:12:48;95436.28;;;14.28;55.92
3697;BME280;60662;48.810;8.872;2024-03-02T09:13:49;95421.97;;;14.32;55.95
3697;BME280;60662;48.810;8.872;2024-03-02T09:14:51;95429.94;;;14.42;55.84
3697;BME280;60662;48.810;8.872;2024-03-02T09:15:52;95435.06;;;13.64;57.41
3697;BME280;60662;48.810;8.872;2024-03-02T09:16:54;95428.53;;;13.81;57.76
3697;BME280;60662;48.810;8.872;2024-03-02T09:17:56;95421.94;;;13.64;57.74
3697;BME280;60662;48.810;8.872;2024-03-02T09:18:58;95422.31;;;14.16;57.23
3697;BME280;60662;48.810;8.872;2024-03-02T09:19:59;95432.78;;;15.06;55.87
3697;BME280;60662;48.810;8.872;2024-03-02T09:21:01;95438.13;;;15.15;54.29
3697;BME280;60662;48.810;8.872;2024-03-02T09:22:02;95432.22;;;15.23;54.36
3697;BME280;60662;48.810;8.872;2024-03-02T09:23:07;95421.63;;;14.92;54.59
3697;BME280;60662;48.810;8.872;2024-03-02T09:24:08;95430.34;;;14.81;55.17
3697;BME280;60662;48.810;8.872;2024-03-02T09:25:11;95423.66;;;15.63;53.95
3697;BME280;60662;48.810;8.872;2024-03-02T09:26:13;95419.41;;;15.72;52.70
3697;BME280;60662;48.810;8.872;2024-03-02T09:27:15;95417.19;;;14.93;54.54
3697;BME280;60662;48.810;8.872;2024-03-02T09:28:16;95426.31;;;15.31;53.45
3697;BME280;60662;48.810;8.872;2024-03-02T09:29:18;95426.06;;;15.13;54.18
3697;BME280;60662;48.810;8.872;2024-03-02T09:30:22;95431.81;;;14.85;54.26
3697;BME280;60662;48.810;8.872;2024-03-02T09:31:24;95405.84;;;14.26;55.65
3697;BME280;60662;48.810;8.872;2024-03-02T09:32:25;95425.28;;;15.01;55.26
3697;BME280;60662;48.810;8.872;2024-03-02T09:33:27;95426.59;;;14.95;54.94
3697;BME280;60662;48.810;8.872;2024-03-02T09:34:28;95419.19;;;15.00;55.18
3697;BME280;60662;48.810;8.872;2024-03-02T09:35:30;95418.28;;;14.79;54.94
3697;BME280;60662;48.810;8.872;2024-03-02T09:36:31;95425.69;;;15.17;54.75
3697;BME280;60662;48.810;8.872;2024-03-02T09:37:33;95425.19;;;14.91;54.55
3697;BME280;60662;48.810;8.872;2024-03-02T09:38:35;95421.56;;;15.25;53.69
3697;BME280;60662;48.810;8.872;2024-03-02T09:39:36;95404.03;;;15.25;53.86
3697;BME280;60662;48.810;8.872;2024-03-02T09:40:38;95418.38;;;15.21;54.04
3697;BME280;60662;48.810;8.872;2024-03-02T09:41:39;95420.53;;;16.00;52.79
3697;BME280;60662;48.810;8.872;2024-03-02T09:42:41;95408.41;;;15.88;51.78
3697;BME280;60662;48.810;8.872;2024-03-02T09:43:43;95423.06;;;16.12;52.17
3697;BME280;60662;48.810;8.872;2024-03-02T09:44:45;95417.28;;;15.66;53.01
3697;BME280;60662;48.810;8.872;2024-03-02T09:45:50;95423.50;;;15.44;54.03
3697;BME280;60662;48.810;8.872;2024-03-02T09:46:53;95413.63;;;15.78;52.80
3697;BME280;60662;48.810;8.872;2024-03-02T09:47:54;95416.34;;;15.46;53.81
3697;BME280;60662;48.810;8.872;2024-03-02T09:48:59;95415.66;;;15.96;52.95
3697;BME280;60662;48.810;8.872;2024-03-02T09:50:07;95408.31;;;15.68;52.67
3697;BME280;60662;48.810;8.872;2024-03-02T09:51:11;95373.75;;;15.10;53.00
3697;BME280;60662;48.810;8.872;2024-03-02T09:52:13;95395.53;;;15.22;53.45
3697;BME280;60662;48.810;8.872;2024-03-02T09:53:16;95391.00;;;15.97;52.63
3697;BME280;60662;48.810;8.872;2024-03-02T09:54:30;95380.66;;;16.75;51.60
3697;BME280;60662;48.810;8.872;2024-03-02T09:55:32;95390.84;;;17.19;50.35
3697;BME280;60662;48.810;8.872;2024-03-02T09:56:36;95360.53;;;16.74;49.91
3697;BME280;60662;48.810;8.872;2024-03-02T09:57:39;95390.88;;;16.49;51.34
3697;BME280;60662;48.810;8.872;2024-03-02T09:58:48;95352.47;;;15.96;51.29
3697;BME280;60662;48.810;8.872;2024-03-02T09:59:50;95390.81;;;16.80;50.20
3697;BME280;60662;48.810;8.872;2024-03-02T10:00:53;95412.75;;;17.10;50.60
3697;BME280;60662;48.810;8.872;2024-03-02T10:02:02;95383.31;;;17.34;49.38
3697;BME280;60662;48.810;8.872;2024-03-02T10:03:04;95391.72;;;16.40;49.48
3697;BME280;60662;48.810;8.872;2024-03-02T10:04:08;95412.56;;;16.12;51.12
3697;BME280;60662;48.810;8.872;2024-03-02T10:05:10;95410.84;;;16.01;50.74
3697;BME280;60662;48.810;8.872;2024-03-02T10:06:23;95412.81;;;16.09;50.32
3697;BME280;60662;48.810;8.872;2024-03-02T10:07:25;95407.31;;;16.82;49.62
3697;BME280;60662;48.810;8.872;2024-03-02T10:08:26;95400.16;;;16.94;49.64
3697;BME280;60662;48.810;8.872;2024-03-02T10:09:45;95408.75;;;16.45;49.59
3697;BME280;60662;48.810;8.872;2024-03-02T10:10:47;95386.03;;;16.44;49.77
3697;BME280;60662;48.810;8.872;2024-03-02T10:11:49;95390.84;;;17.19;49.14
3697;BME280;60662;48.810;8.872;2024-03-02T10:13:03;95394.56;;;16.77;49.29
3697;BME280;60662;48.810;8.872;2024-03-02T10:14:11;95390.38;;;16.85;49.17
3697;BME280;60662;48.810;8.872;2024-03-02T10:15:23;95404.81;;;17.39;48.79
3697;BME280;60662;48.810;8.872;2024-03-02T10:16:25;95400.00;;;17.25;48.57
3697;BME280;60662;48.810;8.872;2024-03-02T10:17:31;95404.78;;;16.61;49.47
3697;BME280;60662;48.810;8.872;2024-03-02T10:18:32;95395.38;;;17.37;48.92
3697;BME280;60662;48.810;8.872;2024-03-02T10:19:38;95402.44;;;18.13;48.71
3697;BME280;60662;48.810;8.872;2024-03-02T10:20:41;95394.00;;;17.42;49.20
3697;BME280;60662;48.810;8.872;2024-03-02T10:21:42;95404.59;;;16.43;50.53
3697;BME280;60662;48.810;8.872;2024-03-02T10:22:44;95406.25;;;16.94;49.39
3697;BME280;60662;48.810;8.872;2024-03-02T10:23:45;95401.00;;;15.51;50.92
3697;BME280;60662;48.810;8.872;2024-03-02T10:24:47;95399.59;;;16.40;50.99
3697;BME280;60662;48.810;8.872;2024-03-02T10:25:55;95398.16;;;16.86;49.30
3697;BME280;60662;48.810;8.872;2024-03-02T10:26:59;95400.81;;;16.86;50.23
3697;BME280;60662;48.810;8.872;2024-03-02T10:28:01;95395.00;;;17.02;49.54
3697;BME280;60662;48.810;8.872;2024-03-02T10:29:02;95396.34;;;16.87;49.11
3697;BME280;60662;48.810;8.872;2024-03-02T10:30:04;95392.78;;;17.17;49.05
3697;BME280;60662;48.810;8.872;2024-03-02T10:31:07;95402.34;;;16.98;49.88
3697;BME280;60662;48.810;8.872;2024-03-02T10:32:11;95392.91;;;17.06;49.94
3697;BME280;60662;48.810;8.872;2024-03-02T10:33:13;95404.00;;;16.80;49.67
3697;BME280;60662;48.810;8.872;2024-03-02T10:34:15;95399.44;;;15.91;50.91
3697;BME280;60662;48.810;8.872;2024-03-02T10:35:21;95393.09;;;16.34;50.47
3697;BME280;60662;48.810;8.872;2024-03-02T10:36:23;95376.94;;;16.88;49.90
3697;BME280;60662;48.810;8.872;2024-03-02T10:37:27;95373.63;;;16.95;49.68
3697;BME280;60662;48.810;8.872;2024-03-02T10:38:29;95384.59;;;16.91;48.50
3697;BME280;60662;48.810;8.872;2024-03-02T10:39:31;95386.91;;;16.84;49.20
3697;BME280;60662;48.810;8.872;2024-03-02T10:40:33;95384.31;;;17.33;48.43
3697;BME280;60662;48.810;8.872;2024-03-02T10:41:37;95383.47;;;16.84;48.83
3697;BME280;60662;48.810;8.872;2024-03-02T10:42:38;95369.78;;;15.37;50.22
3697;BME280;60662;48.810;8.872;2024-03-02T10:43:40;95388.34;;;16.28;49.93
3697;BME280;60662;48.810;8.872;2024-03-02T10:44:42;95392.38;;;15.91;50.17
3697;BME280;60662;48.810;8.872;2024-03-02T10:45:47;95392.16;;;16.04;49.22
3697;BME280;60662;48.810;8.872;2024-03-02T10:46:51;95386.78;;;16.66;48.43
3697;BME280;60662;48.810;8.872;2024-03-02T10:47:54;95378.78;;;16.27;49.08
3697;BME280;60662;48.810;8.872;2024-03-02T10:48:57;95389.50;;;16.64;48.36
3697;BME280;60662;48.810;8.872;2024-03-02T10:50:07;95378.44;;;16.80;48.11
3697;BME280;60662;48.810;8.872;2024-03-02T10:51:09;95393.28;;;16.72;48.01
3697;BME280;60662;48.810;8.872;2024-03-02T10:52:11;95380.53;;;16.67;47.26
3697;BME280;60662;48.810;8.872;2024-03-02T10:53:12;95381.91;;;16.01;48.19
3697;BME280;60662;48.810;8.872;2024-03-02T10:54:14;95380.75;;;16.54;47.72
3697;BME280;60662;48.810;8.872;2024-03-02T10:55:18;95382.53;;;17.04;47.62
3697;BME280;60662;48.810;8.872;2024-03-02T10:56:28;95368.81;;;17.58;46.72
3697;BME280;60662;48.810;8.872;2024-03-02T10:57:33;95380.44;;;16.98;46.04
3697;BME280;60662;48.810;8.872;2024-03-02T10:58:38;95374.06;;;17.01;46.29
3697;BME280;60662;48.810;8.872;2024-03-02T10:59:53;95367.47;;;16.56;46.88
3697;BME280;60662;48.810;8.872;2024-03-02T11:01:03;95374.97;;;16.70;47.49
3697;BME280;60662;48.810;8.872;2024-03-02T11:02:06;95372.66;;;17.26;46.19
3697;BME280;60662;48.810;8.872;2024-03-02T11:03:10;95364.84;;;17.44;46.38
3697;BME280;60662;48.810;8.872;2024-03-02T11:04:15;95370.16;;;17.24;46.50
3697;BME280;60662;48.810;8.872;2024-03-02T11:05:27;95368.81;;;17.68;45.58
3697;BME280;60662;48.810;8.872;2024-03-02T11:06:30;95373.84;;;17.51;45.94
3697;BME280;60662;48.810;8.872;2024-03-02T11:07:35;95363.94;;;18.38;45.45
3697;BME280;60662;48.810;8.872;2024-03-02T11:08:40;95378.16;;;17.52;45.44
3697;BME280;60662;48.810;8.872;2024-03-02T11:09:50;95368.44;;;17.43;45.83
3697;BME280;60662;48.810;8.872;2024-03-02T11:10:58;95368.03;;;17.28;46.40
3697;BME280;60662;48.810;8.872;2024-03-02T11:12:04;95369.28;;;17.43;46.26
3697;BME280;60662;48.810;8.872;2024-03-02T11:13:11;95365.69;;;16.86;46.41
3697;BME280;60662;48.810;8.872;2024-03-02T11:14:16;95367.34;;;16.57;46.54
3697;BME280;60662;48.810;8.872;2024-03-02T11:15:18;95366.28;;;16.99;47.02
3697;BME280;60662;48.810;8.872;2024-03-02T11:16:27;95369.50;;;16.23;47.12
3697;BME280;60662;48.810;8.872;2024-03-02T11:17:34;95364.09;;;15.62;48.71
3697;BME280;60662;48.810;8.872;2024-03-02T11:18:36;95362.81;;;16.19;47.33
3697;BME280;60662;48.810;8.872;2024-03-02T11:19:39;95357.16;;;16.23;47.90
3697;BME280;60662;48.810;8.872;2024-03-02T11:20:42;95348.63;;;16.51;48.00
3697;BME280;60662;48.810;8.872;2024-03-02T11:21:45;95335.72;;;15.97;48.64
3697;BME280;60662;48.810;8.872;2024-03-02T11:22:47;95346.69;;;16.72;47.33
3697;BME280;60662;48.810;8.872;2024-03-02T11:23:49;95345.19;;;16.99;47.44
3697;BME280;60662;48.810;8.872;2024-03-02T11:24:51;95337.78;;;17.22;46.74
3697;BME280;60662;48.810;8.872;2024-03-02T11:25:54;95346.91;;;16.40;47.32
3697;BME280;60662;48.810;8.872;2024-03-02T11:26:56;95342.22;;;16.63;47.67
3697;BME280;60662;48.810;8.872;2024-03-02T11:28:00;95331.41;;;16.56;47.67
3697;BME280;60662;48.810;8.872;2024-03-02T11:29:03;95338.75;;;17.41;47.17
3697;BME280;60662;48.810;8.872;2024-03-02T11:30:05;95332.44;;;17.52;46.14
3697;BME280;60662;48.810;8.872;2024-03-02T11:31:09;95339.56;;;17.41;46.62
3697;BME280;60662;48.810;8.872;2024-03-02T11:32:20;95336.22;;;17.49;46.38
3697;BME280;60662;48.810;8.872;2024-03-02T11:33:23;95334.09;;;17.62;46.41
3697;BME280;60662;48.810;8.872;2024-03-02T11:34:46;95333.50;;;16.72;47.69
3697;BME280;60662;48.810;8.872;2024-03-02T11:35:48;95309.63;;;16.44;47.34
3697;BME280;60662;48.810;8.872;2024-03-02T11:36:50;95321.56;;;17.07;47.14
3697;BME280;60662;48.810;8.872;2024-03-02T11:37:52;95317.78;;;16.31;47.75
3697;BME280;60662;48.810;8.872;2024-03-02T11:38:54;95316.97;;;16.41;47.70
3697;BME280;60662;48.810;8.872;2024-03-02T11:39:56;95321.09;;;15.73;48.60
3697;BME280;60662;48.810;8.872;2024-03-02T11:41:00;95314.03;;;15.22;49.47
3697;BME280;60662;48.810;8.872;2024-03-02T11:42:02;95332.50;;;15.93;48.68
3697;BME280;60662;48.810;8.872;2024-03-02T11:43:05;95321.81;;;16.26;47.36
3697;BME280;60662;48.810;8.872;2024-03-02T11:44:07;95330.13;;;17.39;46.85
3697;BME280;60662;48.810;8.872;2024-03-02T11:45:16;95316.75;;;16.93;47.16
3697;BME280;60662;48.810;8.872;2024-03-02T11:46:21;95317.03;;;17.47;45.68
3697;BME280;60662;48.810;8.872;2024-03-02T11:47:23;95322.31;;;17.47;46.27
3697;BME280;60662;48.810;8.872;2024-03-02T11:48:25;95316.16;;;17.66;46.79
3697;BME280;60662;48.810;8.872;2024-03-02T11:49:37;95321.31;;;17.58;46.42
3697;BME280;60662;48.810;8.872;2024-03-02T11:50:50;95312.25;;;17.70;46.21
3697;BME280;60662;48.810;8.872;2024-03-02T11:52:01;95316.47;;;17.53;46.41
3697;BME280;60662;48.810;8.872;2024-03-02T11:53:05;95305.25;;;17.51;46.38
3697;BME280;60662;48.810;8.872;2024-03-02T11:54:10;95317.19;;;17.45;45.74
3697;BME280;60662;48.810;8.872;2024-03-02T11:55:12;95315.50;;;17.54;45.71
3697;BME280;60662;48.810;8.872;2024-03-02T11:56:14;95314.63;;;17.16;46.47
3697;BME280;60662;48.810;8.872;2024-03-02T11:57:18;95312.31;;;17.88;45.04
3697;BME280;60662;48.810;8.872;2024-03-02T11:58:21;95309.72;;;17.78;45.79
3697;BME280;60662;48.810;8.872;2024-03-02T11:59:26;95306.56;;;17.18;46.26
3697;BME280;60662;48.810;8.872;2024-03-02T12:00:27;95309.59;;;17.23;46.29
3697;BME280;60662;48.810;8.872;2024-03-02T12:01:29;95307.38;;;17.75;45.81
3697;BME280;60662;48.810;8.872;2024-03-02T12:02:31;95302.50;;;17.71;45.26
3697;BME280;60662;48.810;8.872;2024-03-02T12:03:32;95301.59;;;17.90;45.32
3697;BME280;60662;48.810;8.872;2024-03-02T12:04:41;95289.53;;;18.15;45.34
3697;BME280;60662;48.810;8.872;2024-03-02T12:05:44;95284.06;;;17.23;45.24
3697;BME280;60662;48.810;8.872;2024-03-02T12:07:05;95281.31;;;16.76;46.45
3697;BME280;60662;48.810;8.872;2024-03-02T12:08:07;95292.94;;;17.70;46.22
3697;BME280;60662;48.810;8.872;2024-03-02T12:09:09;95278.78;;;17.61;47.71
3697;BME280;60662;48.810;8.872;2024-03-02T12:10:14;95296.00;;;17.27;46.43
3697;BME280;60662;48.810;8.872;2024-03-02T12:11:16;95284.50;;;17.09;46.74
3697;BME280;60662;48.810;8.872;2024-03-02T12:12:20;95281.69;;;17.30;46.55
3697;BME280;60662;48.810;8.872;2024-03-02T12:13:23;95272.47;;;17.82;45.37
3697;BME280;60662;48.810;8.872;2024-03-02T12:14:25;95278.69;;;17.53;45.56
3697;BME280;60662;48.810;8.872;2024-03-02T12:15:33;95284.56;;;18.12;44.73
3697;BME280;60662;48.810;8.872;2024-03-02T12:16:34;95288.66;;;17.97;45.72
3697;BME280;60662;48.810;8.872;2024-03-02T12:17:38;95279.81;;;17.88;44.84
3697;BME280;60662;48.810;8.872;2024-03-02T12:18:41;95285.34;;;18.58;44.28
3697;BME280;60662;48.810;8.872;2024-03-02T12:19:45;95292.13;;;18.25;44.50
3697;BME280;60662;48.810;8.872;2024-03-02T12:20:49;95295.31;;;18.47;43.72
3697;BME280;60662;48.810;8.872;2024-03-02T12:21:51;95284.28;;;18.87;44.15
3697;BME280;60662;48.810;8.872;2024-03-02T12:22:53;95281.31;;;17.15;45.32
3697;BME280;60662;48.810;8.872;2024-03-02T12:23:55;95277.81;;;18.00;44.83
3697;BME280;60662;48.810;8.872;2024-03-02T12:24:57;95279.78;;;17.60;45.30
3697;BME280;60662;48.810;8.872;2024-03-02T12:25:58;95278.81;;;17.23;45.72
3697;BME280;60662;48.810;8.872;2024-03-02T12:27:00;95279.25;;;17.56;46.74
3697;BME280;60662;48.810;8.872;2024-03-02T12:28:02;95286.09;;;17.39;45.86
3697;BME280;60662;48.810;8.872;2024-03-02T12:29:04;95283.09;;;18.00;44.92
3697;BME280;60662;48.810;8.872;2024-03-02T12:30:07;95277.31;;;18.14;45.27
3697;BME280;60662;48.810;8.872;2024-03-02T12:31:11;95281.66;;;17.40;45.62
3697;BME280;60662;48.810;8.872;2024-03-02T12:32:14;95273.94;;;17.66;45.46
3697;BME280;60662;48.810;8.872;2024-03-02T12:33:16;95267.38;;;18.26;44.02
3697;BME280;60662;48.810;8.872;2024-03-02T12:34:18;95247.75;;;18.47;43.39
3697;BME280;60662;48.810;8.872;2024-03-02T12:35:20;95259.59;;;19.23;42.47
3697;BME280;60662;48.810;8.872;2024-03-02T12:36:22;95270.75;;;19.35;43.65
3697;BME280;60662;48.810;8.872;2024-03-02T12:37:23;95275.25;;;18.90;43.26
3697;BME280;60662;48.810;8.872;2024-03-02T12:38:25;95263.75;;;18.63;44.19
3697;BME280;60662;48.810;8.872;2024-03-02T12:39:27;95265.22;;;19.20;43.68
3697;BME280;60662;48.810;8.872;2024-03-02T12:40:30;95262.69;;;19.18;44.19
3697;BME280;60662;48.810;8.872;2024-03-02T12:41:31;95252.88;;;19.63;44.13
3697;BME280;60662;48.810;8.872;2024-03-02T12:42:33;95257.25;;;18.93;43.65
3697;BME280;60662;48.810;8.872;2024-03-02T12:43:34;95251.66;;;19.49;43.27
3697;BME280;60662;48.810;8.872;2024-03-02T12:44:36;95256.50;;;19.62;42.82
3697;BME280;60662;48.810;8.872;2024-03-02T12:45:38;95261.78;;;19.88;42.54
3697;BME280;60662;48.810;8.872;2024-03-02T12:46:40;95261.91;;;19.87;44.68
3697;BME280;60662;48.810;8.872;2024-03-02T12:47:42;95239.56;;;18.76;42.70
3697;BME280;60662;48.810;8.872;2024-03-02T12:48:44;95253.97;;;19.52;43.04
3697;BME280;60662;48.810;8.872;2024-03-02T12:49:45;95254.78;;;18.92;43.39
3697;BME280;60662;48.810;8.872;2024-03-02T12:50:47;95259.06;;;18.21;44.51
3697;BME280;60662;48.810;8.872;2024-03-02T12:51:49;95257.16;;;19.30;43.29
3697;BME280;60662;48.810;8.872;2024-03-02T12:52:55;95241.53;;;18.92;42.95
3697;BME280;60662;48.810;8.872;2024-03-02T12:53:57;95259.50;;;18.88;43.78
3697;BME280;60662;48.810;8.872;2024-03-02T12:55:00;95253.31;;;18.07;43.76
3697;BME280;60662;48.810;8.872;2024-03-02T12:56:02;95254.75;;;18.74;44.12
3697;BME280;60662;48.810;8.872;2024-03-02T12:57:05;95254.84;;;18.28;43.69
3697;BME280;60662;48.810;8.872;2024-03-02T12:58:07;95258.97;;;18.85;43.72
3697;BME280;60662;48.810;8.872;2024-03-02T12:59:08;95245.41;;;18.62;43.62
3697;BME280;60662;48.810;8.872;2024-03-02T13:00:12;95242.94;;;18.86;43.50
3697;BME280;60662;48.810;8.872;2024-03-02T13:01:15;95257.31;;;18.30;43.63
3697;BME280;60662;48.810;8.872;2024-03-02T13:02:20;95255.09;;;18.35;44.01
3697;BME280;60662;48.810;8.872;2024-03-02T13:03:21;95253.31;;;18.80;43.69
3697;BME280;60662;48.810;8.872;2024-03-02T13:04:25;95245.38;;;18.80;43.96
3697;BME280;60662;48.810;8.872;2024-03-02T13:05:30;95240.78;;;18.82;43.44
3697;BME280;60662;48.810;8.872;2024-03-02T13:06:32;95230.56;;;19.39;43.00
3697;BME280;60662;48.810;8.872;2024-03-02T13:07:35;95248.69;;;19.26;42.96
3697;BME280;60662;48.810;8.872;2024-03-02T13:08:37;95242.81;;;18.70;43.81
3697;BME280;60662;48.810;8.872;2024-03-02T13:09:39;95220.69;;;17.71;44.58
3697;BME280;60662;48.810;8.872;2024-03-02T13:10:41;95242.69;;;17.24;45.19
3697;BME280;60662;48.810;8.872;2024-03-02T13:11:43;95242.06;;;17.02;46.17
3697;BME280;60662;48.810;8.872;2024-03-02T13:12:44;95237.06;;;16.79;46.72
3697;BME280;60662;48.810;8.872;2024-03-02T13:13:46;95239.59;;;16.52;46.77
3697;BME280;60662;48.810;8.872;2024-03-02T13:14:52;95240.59;;;16.51;46.65
3697;BME280;60662;48.810;8.872;2024-03-02T13:15:55;95227.69;;;16.47;46.28
3697;BME280;60662;48.810;8.872;2024-03-02T13:16:57;95239.03;;;16.19;47.24